createdAt,value
2023-03-26T00:00:58.061Z,988.1
2023-03-26T00:01:59.229Z,988.2
2023-03-26T00:03:00.529Z,988.2
2023-03-26T00:04:01.713Z,988.2
2023-03-26T00:05:02.999Z,988.2
2023-03-26T00:06:04.225Z,988.2
2023-03-26T00:07:05.478Z,988.2
2023-03-26T00:08:06.649Z,988.2
2023-03-26T00:09:07.809Z,988.2
2023-03-26T00:10:08.974Z,988.1
2023-03-26T00:11:10.141Z,988.1
2023-03-26T00:12:11.304Z,988.2
2023-03-26T00:13:12.470Z,988.2
2023-03-26T00:14:13.826Z,988.2
2023-03-26T00:15:15.336Z,988.3
2023-03-26T00:16:16.517Z,988.3
2023-03-26T00:17:17.680Z,988.2
2023-03-26T00:18:18.844Z,988.3
2023-03-26T00:19:20.009Z,988.2
2023-03-26T00:20:21.205Z,988.2
2023-03-26T00:21:22.350Z,988.3
2023-03-26T00:22:23.511Z,988.2
2023-03-26T00:23:24.530Z,988.3
2023-03-26T00:24:25.833Z,988.3
2023-03-26T00:25:27.001Z,988.3
2023-03-26T00:26:28.169Z,988.3
2023-03-26T00:27:29.341Z,988.3
2023-03-26T00:28:30.497Z,988.3
2023-03-26T00:29:31.663Z,988.3
2023-03-26T00:30:32.857Z,988.3
2023-03-26T00:31:33.817Z,988.3
2023-03-26T00:32:35.171Z,988.3
2023-03-26T00:33:36.321Z,988.3
2023-03-26T00:34:37.483Z,988.3
2023-03-26T00:35:38.817Z,988.3
2023-03-26T00:36:39.682Z,988.3
2023-03-26T00:37:40.874Z,988.3
2023-03-26T00:38:41.853Z,988.3
2023-03-26T00:39:43.016Z,988.3
2023-03-26T00:40:44.199Z,988.3
2023-03-26T00:41:45.345Z,988.3
2023-03-26T00:42:46.372Z,988.3
2023-03-26T00:43:47.329Z,988.3
2023-03-26T00:44:48.646Z,988.3
2023-03-26T00:45:49.825Z,988.3
2023-03-26T00:46:50.783Z,988.3
2023-03-26T00:47:51.889Z,988.3
2023-03-26T00:48:53.025Z,988.3
2023-03-26T00:49:54.192Z,988.3
2023-03-26T00:50:55.387Z,988.3
2023-03-26T00:51:56.527Z,988.3
2023-03-26T00:52:57.690Z,988.2
2023-03-26T00:53:58.857Z,988.2
2023-03-26T00:55:00.025Z,988.2
2023-03-26T00:56:01.195Z,988.2
2023-03-26T00:57:02.384Z,988.2
2023-03-26T00:58:03.487Z,988.2
2023-03-26T00:59:04.455Z,988.2
2023-03-26T01:00:05.620Z,988.2
2023-03-26T01:01:06.796Z,988.2
2023-03-26T01:02:07.957Z,988.2
2023-03-26T01:03:09.287Z,988.2
2023-03-26T01:04:10.844Z,988.2
2023-03-26T01:05:12.097Z,988.2
2023-03-26T01:06:13.503Z,988.2
2023-03-26T01:07:14.658Z,988.2
2023-03-26T01:08:15.810Z,988.2
2023-03-26T01:09:16.997Z,988.3
2023-03-26T01:10:18.158Z,988.2
2023-03-26T01:11:19.326Z,988.2
2023-03-26T01:12:20.293Z,988.2
2023-03-26T01:13:21.458Z,988.2
2023-03-26T01:14:22.617Z,988.2
2023-03-26T01:15:23.782Z,988.2
2023-03-26T01:16:25.133Z,988.3
2023-03-26T01:17:26.451Z,988.3
2023-03-26T01:18:27.613Z,988.2
2023-03-26T01:19:28.581Z,988.3
2023-03-26T01:20:29.544Z,988.3
2023-03-26T01:21:30.816Z,988.3
2023-03-26T01:22:31.958Z,988.3
2023-03-26T01:23:33.123Z,988.2
2023-03-26T01:24:34.283Z,988.3
2023-03-26T01:25:35.260Z,988.2
2023-03-26T01:26:36.421Z,988.2
2023-03-26T01:27:37.582Z,988.2
2023-03-26T01:28:38.749Z,988.3
2023-03-26T01:29:39.912Z,988.3
2023-03-26T01:30:40.882Z,988.3
2023-03-26T01:31:42.047Z,988.3
2023-03-26T01:32:43.391Z,988.3
2023-03-26T01:33:45.202Z,988.3
2023-03-26T01:34:46.755Z,988.3
2023-03-26T01:35:48.090Z,988.3
2023-03-26T01:36:49.352Z,988.3
2023-03-26T01:37:50.500Z,988.3
2023-03-26T01:38:51.305Z,988.4
2023-03-26T01:39:52.477Z,988.3
2023-03-26T01:40:53.632Z,988.3
2023-03-26T01:41:54.662Z,988.3
2023-03-26T01:42:55.822Z,988.4
2023-03-26T01:43:56.791Z,988.3
2023-03-26T01:44:57.955Z,988.4
2023-03-26T01:45:59.127Z,988.3
2023-03-26T01:47:00.359Z,988.4
2023-03-26T01:48:01.750Z,988.4
2023-03-26T01:49:03.033Z,988.3
2023-03-26T01:50:04.200Z,988.4
2023-03-26T01:51:04.971Z,988.4
2023-03-26T01:52:06.157Z,988.4
2023-03-26T01:53:07.119Z,988.4
2023-03-26T01:54:08.269Z,988.4
2023-03-26T01:55:09.432Z,988.4
2023-03-26T01:56:10.606Z,988.4
2023-03-26T01:57:11.900Z,988.4
2023-03-26T01:58:13.233Z,988.4
2023-03-26T01:59:14.401Z,988.4
2023-03-26T02:00:15.609Z,988.4
2023-03-26T02:01:16.831Z,988.4
2023-03-26T02:02:18.226Z,988.3
2023-03-26T02:03:19.850Z,988.3
2023-03-26T02:04:21.365Z,988.3
2023-03-26T02:05:22.535Z,988.3
2023-03-26T02:06:23.694Z,988.3
2023-03-26T02:07:24.697Z,988.4
2023-03-26T02:08:26.208Z,988.4
2023-03-26T02:09:27.406Z,988.4
2023-03-26T02:10:28.539Z,988.3
2023-03-26T02:11:36.308Z,988.4
2023-03-26T02:12:37.458Z,988.4
2023-03-26T02:13:38.621Z,988.4
2023-03-26T02:14:39.788Z,988.4
2023-03-26T02:15:40.962Z,988.4
2023-03-26T02:16:41.954Z,988.3
2023-03-26T02:17:42.803Z,988.3
2023-03-26T02:18:43.934Z,988.3
2023-03-26T02:19:45.103Z,988.3
2023-03-26T02:20:46.072Z,988.3
2023-03-26T02:21:47.236Z,988.3
2023-03-26T02:22:48.433Z,988.4
2023-03-26T02:23:49.569Z,988.4
2023-03-26T02:24:50.730Z,988.4
2023-03-26T02:25:52.589Z,988.4
2023-03-26T02:26:54.283Z,988.4
2023-03-26T02:27:55.451Z,988.4
2023-03-26T02:28:58.836Z,988.4
2023-03-26T02:29:59.805Z,988.4
2023-03-26T02:31:00.974Z,988.4
2023-03-26T02:32:02.236Z,988.4
2023-03-26T02:33:03.550Z,988.4
2023-03-26T02:34:04.847Z,988.4
2023-03-26T02:35:06.016Z,988.4
2023-03-26T02:36:07.345Z,988.4
2023-03-26T02:37:08.696Z,988.4
2023-03-26T02:38:09.888Z,988.4
2023-03-26T02:39:11.049Z,988.4
2023-03-26T02:40:12.296Z,988.4
2023-03-26T02:41:13.458Z,988.4
2023-03-26T02:42:14.619Z,988.4
2023-03-26T02:43:15.781Z,988.4
2023-03-26T02:44:16.949Z,988.4
2023-03-26T02:45:17.917Z,988.4
2023-03-26T02:46:19.304Z,988.4
2023-03-26T02:47:20.497Z,988.4
2023-03-26T02:48:21.668Z,988.4
2023-03-26T02:49:22.920Z,988.4
2023-03-26T02:50:23.878Z,988.4
2023-03-26T02:51:25.047Z,988.4
2023-03-26T02:52:26.206Z,988.4
2023-03-26T02:53:27.398Z,988.4
2023-03-26T02:54:28.536Z,988.4
2023-03-26T02:55:29.707Z,988.4
2023-03-26T02:56:30.897Z,988.4
2023-03-26T02:57:32.148Z,988.4
2023-03-26T02:58:33.316Z,988.4
2023-03-26T02:59:34.476Z,988.4
2023-03-26T03:00:35.449Z,988.4
2023-03-26T03:01:36.671Z,988.4
2023-03-26T03:02:38.080Z,988.4
2023-03-26T03:03:39.074Z,988.4
2023-03-26T03:04:40.048Z,988.4
2023-03-26T03:05:41.040Z,988.4
2023-03-26T03:06:42.179Z,988.5
2023-03-26T03:07:43.740Z,988.5
2023-03-26T03:08:44.912Z,988.5
2023-03-26T03:09:45.846Z,988.4
2023-03-26T03:10:46.850Z,988.4
2023-03-26T03:11:48.016Z,988.5
2023-03-26T03:12:49.182Z,988.5
2023-03-26T03:13:50.364Z,988.5
2023-03-26T03:14:51.512Z,988.5
2023-03-26T03:15:53.077Z,988.5
2023-03-26T03:16:54.565Z,988.5
2023-03-26T03:17:55.825Z,988.5
2023-03-26T03:18:58.567Z,988.5
2023-03-26T03:19:59.755Z,988.5
2023-03-26T03:21:00.917Z,988.5
2023-03-26T03:22:02.079Z,988.5
2023-03-26T03:23:03.240Z,988.5
2023-03-26T03:24:04.243Z,988.5
2023-03-26T03:25:05.188Z,988.5
2023-03-26T03:26:06.352Z,988.5
2023-03-26T03:27:07.518Z,988.5
2023-03-26T03:28:08.680Z,988.5
2023-03-26T03:29:09.852Z,988.6
2023-03-26T03:30:11.010Z,988.6
2023-03-26T03:31:12.272Z,988.6
2023-03-26T03:32:13.560Z,988.6
2023-03-26T03:33:14.723Z,988.6
2023-03-26T03:34:15.895Z,988.6
2023-03-26T03:35:17.063Z,988.6
2023-03-26T03:36:21.929Z,988.6
2023-03-26T03:37:23.084Z,988.5
2023-03-26T03:38:24.052Z,988.6
2023-03-26T03:39:25.277Z,988.6
2023-03-26T03:40:26.402Z,988.6
2023-03-26T03:41:27.569Z,988.6
2023-03-26T03:42:28.403Z,988.6
2023-03-26T03:43:29.547Z,988.6
2023-03-26T03:44:30.715Z,988.6
2023-03-26T03:45:32.082Z,988.6
2023-03-26T03:46:33.170Z,988.6
2023-03-26T03:47:34.596Z,988.6
2023-03-26T03:48:35.717Z,988.6
2023-03-26T03:49:36.878Z,988.5
2023-03-26T03:50:38.057Z,988.5
2023-03-26T03:51:47.261Z,988.5
2023-03-26T03:52:48.383Z,988.5
2023-03-26T03:53:49.547Z,988.5
2023-03-26T03:54:50.750Z,988.5
2023-03-26T03:55:51.989Z,988.5
2023-03-26T03:56:53.488Z,988.5
2023-03-26T03:57:54.748Z,988.5
2023-03-26T03:58:55.895Z,988.5
2023-03-26T03:59:57.065Z,988.5
2023-03-26T04:00:58.223Z,988.5
2023-03-26T04:01:59.212Z,988.5
2023-03-26T04:03:00.456Z,988.5
2023-03-26T04:04:01.994Z,988.5
2023-03-26T04:05:03.377Z,988.5
2023-03-26T04:06:04.396Z,988.5
2023-03-26T04:07:05.514Z,988.5
2023-03-26T04:08:06.687Z,988.5
2023-03-26T04:09:07.849Z,988.5
2023-03-26T04:10:09.078Z,988.5
2023-03-26T04:11:10.046Z,988.5
2023-03-26T04:12:11.214Z,988.5
2023-03-26T04:13:12.378Z,988.6
2023-03-26T04:14:13.549Z,988.5
2023-03-26T04:15:14.710Z,988.5
2023-03-26T04:16:15.958Z,988.5
2023-03-26T04:17:17.293Z,988.5
2023-03-26T04:18:18.455Z,988.5
2023-03-26T04:19:19.622Z,988.5
2023-03-26T04:20:20.788Z,988.6
2023-03-26T04:21:21.953Z,988.6
2023-03-26T04:22:23.114Z,988.5
2023-03-26T04:23:24.491Z,988.5
2023-03-26T04:24:25.655Z,988.6
2023-03-26T04:25:26.849Z,988.5
2023-03-26T04:26:27.987Z,988.6
2023-03-26T04:27:28.953Z,988.6
2023-03-26T04:28:30.120Z,988.6
2023-03-26T04:29:31.090Z,988.6
2023-03-26T04:30:32.256Z,988.6
2023-03-26T04:31:33.179Z,988.6
2023-03-26T04:32:34.539Z,988.6
2023-03-26T04:33:35.520Z,988.6
2023-03-26T04:34:36.687Z,988.6
2023-03-26T04:35:38.049Z,988.6
2023-03-26T04:36:39.298Z,988.6
2023-03-26T04:37:40.567Z,988.6
2023-03-26T04:38:41.643Z,988.6
2023-03-26T04:39:42.790Z,988.6
2023-03-26T04:40:43.988Z,988.6
2023-03-26T04:41:45.134Z,988.6
2023-03-26T04:42:46.326Z,988.6
2023-03-26T04:43:47.569Z,988.6
2023-03-26T04:44:48.777Z,988.6
2023-03-26T04:45:49.942Z,988.6
2023-03-26T04:46:51.205Z,988.6
2023-03-26T04:47:52.611Z,988.6
2023-03-26T04:48:53.660Z,988.6
2023-03-26T04:49:54.474Z,988.6
2023-03-26T04:50:55.643Z,988.6
2023-03-26T04:51:56.810Z,988.6
2023-03-26T04:52:57.971Z,988.6
2023-03-26T04:53:59.137Z,988.6
2023-03-26T04:55:00.302Z,988.5
2023-03-26T04:56:01.334Z,988.5
2023-03-26T04:57:02.510Z,988.5
2023-03-26T04:58:03.569Z,988.5
2023-03-26T04:59:04.718Z,988.5
2023-03-26T05:00:05.888Z,988.5
2023-03-26T05:01:10.963Z,988.5
2023-03-26T05:02:12.242Z,988.5
2023-03-26T05:03:13.248Z,988.5
2023-03-26T05:04:14.463Z,988.5
2023-03-26T05:05:15.675Z,988.4
2023-03-26T05:06:16.839Z,988.4
2023-03-26T05:07:17.815Z,988.4
2023-03-26T05:08:18.776Z,988.4
2023-03-26T05:09:19.939Z,988.4
2023-03-26T05:10:21.120Z,988.5
2023-03-26T05:11:22.324Z,988.4
2023-03-26T05:12:23.451Z,988.5
2023-03-26T05:13:24.615Z,988.5
2023-03-26T05:14:25.777Z,988.5
2023-03-26T05:15:26.948Z,988.5
2023-03-26T05:16:28.114Z,988.5
2023-03-26T05:17:29.299Z,988.5
2023-03-26T05:18:34.002Z,988.5
2023-03-26T05:19:35.166Z,988.5
2023-03-26T05:20:36.125Z,988.5
2023-03-26T05:21:37.166Z,988.5
2023-03-26T05:22:38.635Z,988.5
2023-03-26T05:23:39.797Z,988.5
2023-03-26T05:24:40.966Z,988.4
2023-03-26T05:25:42.152Z,988.5
2023-03-26T05:26:43.396Z,988.4
2023-03-26T05:27:44.601Z,988.4
2023-03-26T05:28:45.576Z,988.5
2023-03-26T05:29:46.586Z,988.5
2023-03-26T05:30:47.709Z,988.4
2023-03-26T05:31:48.869Z,988.4
2023-03-26T05:32:50.336Z,988.4
2023-03-26T05:33:51.602Z,988.4
2023-03-26T05:34:52.661Z,988.4
2023-03-26T05:35:54.055Z,988.4
2023-03-26T05:36:55.100Z,988.4
2023-03-26T05:37:56.057Z,988.4
2023-03-26T05:38:57.230Z,988.4
2023-03-26T05:39:58.396Z,988.3
2023-03-26T05:40:59.560Z,988.4
2023-03-26T05:42:00.557Z,988.3
2023-03-26T05:43:01.507Z,988.3
2023-03-26T05:44:02.662Z,988.3
2023-03-26T05:45:03.828Z,988.4
2023-03-26T05:46:05.145Z,988.3
2023-03-26T05:47:06.358Z,988.3
2023-03-26T05:48:07.187Z,988.3
2023-03-26T05:49:08.295Z,988.3
2023-03-26T05:50:09.069Z,988.3
2023-03-26T05:51:10.224Z,988.3
2023-03-26T05:52:11.387Z,988.3
2023-03-26T05:53:12.553Z,988.3
2023-03-26T05:54:13.524Z,988.3
2023-03-26T05:55:14.686Z,988.3
2023-03-26T05:56:15.853Z,988.3
2023-03-26T05:57:17.203Z,988.3
2023-03-26T05:58:18.339Z,988.3
2023-03-26T05:59:19.501Z,988.3
2023-03-26T06:00:23.118Z,988.3
2023-03-26T06:01:24.273Z,988.2
2023-03-26T06:02:25.515Z,988.2
2023-03-26T06:03:26.960Z,988.2
2023-03-26T06:04:28.429Z,988.2
2023-03-26T06:05:29.831Z,988.2
2023-03-26T06:06:33.513Z,988.2
2023-03-26T06:07:34.680Z,988.2
2023-03-26T06:08:35.849Z,988.2
2023-03-26T06:09:37.091Z,988.2
2023-03-26T06:10:38.208Z,988.2
2023-03-26T06:11:39.522Z,988.1
2023-03-26T06:12:40.721Z,988.1
2023-03-26T06:13:41.854Z,988.1
2023-03-26T06:14:43.108Z,988.1
2023-03-26T06:15:44.129Z,988.1
2023-03-26T06:16:45.096Z,988.1
2023-03-26T06:17:46.268Z,988.2
2023-03-26T06:18:47.560Z,988.1
2023-03-26T06:19:58.512Z,988.1
2023-03-26T06:20:59.526Z,988.2
2023-03-26T06:22:00.698Z,988.2
2023-03-26T06:23:01.848Z,988.2
2023-03-26T06:24:02.857Z,988.2
2023-03-26T06:25:04.024Z,988.2
2023-03-26T06:26:05.187Z,988.1
2023-03-26T06:27:06.161Z,988.1
2023-03-26T06:28:07.349Z,988.1
2023-03-26T06:29:08.489Z,988.1
2023-03-26T06:30:09.675Z,988.1
2023-03-26T06:31:10.877Z,988.1
2023-03-26T06:32:20.680Z,988.1
2023-03-26T06:33:24.795Z,988.1
2023-03-26T06:34:25.780Z,988.1
2023-03-26T06:35:26.933Z,988.1
2023-03-26T06:36:28.100Z,988.1
2023-03-26T06:37:29.286Z,988.1
2023-03-26T06:38:30.454Z,988.1
2023-03-26T06:39:31.620Z,988.1
2023-03-26T06:40:32.804Z,988.2
2023-03-26T06:41:33.948Z,988.2
2023-03-26T06:43:11.188Z,988.1
2023-03-26T06:44:12.462Z,988.1
2023-03-26T06:45:13.623Z,988.1
2023-03-26T06:46:14.817Z,988.2
2023-03-26T06:47:15.950Z,988.2
2023-03-26T06:48:17.112Z,988.1
2023-03-26T06:49:18.291Z,988.1
2023-03-26T06:50:19.446Z,988.1
2023-03-26T06:51:20.610Z,988.1
2023-03-26T06:52:21.776Z,988.2
2023-03-26T06:53:22.941Z,988.1
2023-03-26T06:54:24.102Z,988.1
2023-03-26T06:55:25.081Z,988.1
2023-03-26T06:56:26.049Z,988.1
2023-03-26T06:57:27.218Z,988.1
2023-03-26T06:58:28.396Z,988.1
2023-03-26T06:59:29.206Z,988.1
2023-03-26T07:00:30.370Z,988.1
2023-03-26T07:01:31.566Z,988.1
2023-03-26T07:02:32.596Z,988.1
2023-03-26T07:03:33.851Z,988.1
2023-03-26T07:04:34.868Z,988.1
2023-03-26T07:05:36.036Z,988.1
2023-03-26T07:06:37.205Z,988.1
2023-03-26T07:07:47.269Z,988.1
2023-03-26T07:08:48.572Z,988.1
2023-03-26T07:09:49.793Z,988.1
2023-03-26T07:10:50.728Z,988.1
2023-03-26T07:11:51.895Z,988.1
2023-03-26T07:12:53.058Z,988.1
2023-03-26T07:13:54.248Z,988.1
2023-03-26T07:14:55.545Z,988.1
2023-03-26T07:15:57.843Z,988.1
2023-03-26T07:16:58.947Z,988.1
2023-03-26T07:18:00.166Z,988.1
2023-03-26T07:19:01.343Z,988
2023-03-26T07:20:02.512Z,988
2023-03-26T07:21:03.683Z,988
2023-03-26T07:22:04.839Z,988
2023-03-26T07:23:06.001Z,988
2023-03-26T07:24:07.166Z,988
2023-03-26T07:25:08.213Z,988
2023-03-26T07:26:09.538Z,988
2023-03-26T07:27:10.550Z,988
2023-03-26T07:28:11.710Z,988
2023-03-26T07:29:12.817Z,988
2023-03-26T07:30:13.939Z,988
2023-03-26T07:31:15.008Z,987.9
2023-03-26T07:32:19.251Z,988
2023-03-26T07:33:20.495Z,987.9
2023-03-26T07:34:21.867Z,987.9
2023-03-26T07:35:23.028Z,987.9
2023-03-26T07:36:24.206Z,987.9
2023-03-26T07:37:25.373Z,987.9
2023-03-26T07:38:26.528Z,987.9
2023-03-26T07:39:28.443Z,987.9
2023-03-26T07:40:29.612Z,987.9
2023-03-26T07:41:30.807Z,987.9
2023-03-26T07:42:31.938Z,987.9
2023-03-26T07:43:32.916Z,987.9
2023-03-26T07:44:36.088Z,987.9
2023-03-26T07:45:37.197Z,987.9
2023-03-26T07:46:38.242Z,987.9
2023-03-26T07:47:39.438Z,987.9
2023-03-26T07:48:40.595Z,987.9
2023-03-26T07:49:41.766Z,987.9
2023-03-26T07:50:42.932Z,987.9
2023-03-26T07:51:44.096Z,987.9
2023-03-26T07:52:45.066Z,987.9
2023-03-26T07:53:46.239Z,987.8
2023-03-26T07:54:47.003Z,987.8
2023-03-26T07:55:48.176Z,987.9
2023-03-26T07:56:49.422Z,987.9
2023-03-26T07:57:50.591Z,987.9
2023-03-26T07:58:51.761Z,987.9
2023-03-26T07:59:53.006Z,987.9
2023-03-26T08:00:54.652Z,987.9
2023-03-26T08:01:56.269Z,987.8
2023-03-26T08:02:57.973Z,987.8
2023-03-26T08:04:24.669Z,987.8
2023-03-26T08:05:27.411Z,987.8
2023-03-26T08:06:28.277Z,987.8
2023-03-26T08:07:29.445Z,987.7
2023-03-26T08:08:30.801Z,987.7
2023-03-26T08:09:32.148Z,987.7
2023-03-26T08:10:33.317Z,987.7
2023-03-26T08:11:34.481Z,987.7
2023-03-26T08:12:35.640Z,987.7
2023-03-26T08:13:36.816Z,987.7
2023-03-26T08:14:37.823Z,987.7
2023-03-26T08:15:39.213Z,987.7
2023-03-26T08:16:40.256Z,987.7
2023-03-26T08:17:41.435Z,987.7
2023-03-26T08:18:42.588Z,987.7
2023-03-26T08:19:43.786Z,987.7
2023-03-26T08:20:44.871Z,987.7
2023-03-26T08:21:46.040Z,987.6
2023-03-26T08:22:47.006Z,987.7
2023-03-26T08:23:51.646Z,987.7
2023-03-26T08:24:52.814Z,987.6
2023-03-26T08:25:53.901Z,987.6
2023-03-26T08:26:54.873Z,987.6
2023-03-26T08:27:56.035Z,987.6
2023-03-26T08:28:56.809Z,987.6
2023-03-26T08:29:57.978Z,987.6
2023-03-26T08:30:59.023Z,987.6
2023-03-26T08:31:59.776Z,987.6
2023-03-26T08:33:00.972Z,987.6
2023-03-26T08:34:02.018Z,987.7
2023-03-26T08:35:03.188Z,987.7
2023-03-26T08:36:04.310Z,987.7
2023-03-26T08:37:05.452Z,987.7
2023-03-26T08:38:06.420Z,987.7
2023-03-26T08:39:07.591Z,987.7
2023-03-26T08:40:08.605Z,987.7
2023-03-26T08:41:09.775Z,987.7
2023-03-26T08:42:10.788Z,987.7
2023-03-26T08:43:11.957Z,987.7
2023-03-26T08:44:12.958Z,987.7
2023-03-26T08:45:14.132Z,987.7
2023-03-26T08:46:15.302Z,987.7
2023-03-26T08:47:16.636Z,987.7
2023-03-26T08:48:17.643Z,987.6
2023-03-26T08:49:18.805Z,987.6
2023-03-26T08:50:19.787Z,987.6
2023-03-26T08:51:20.942Z,987.6
2023-03-26T08:52:21.917Z,987.6
2023-03-26T08:53:22.882Z,987.6
2023-03-26T08:54:24.051Z,987.6
2023-03-26T08:55:25.219Z,987.6
2023-03-26T08:56:26.235Z,987.6
2023-03-26T08:57:27.394Z,987.6
2023-03-26T08:58:28.564Z,987.6
2023-03-26T08:59:29.727Z,987.6
2023-03-26T09:00:30.696Z,987.5
2023-03-26T09:01:31.948Z,987.5
2023-03-26T09:02:33.149Z,987.5
2023-03-26T09:03:34.204Z,987.5
2023-03-26T09:04:35.398Z,987.5
2023-03-26T09:05:36.568Z,987.5
2023-03-26T09:06:37.399Z,987.5
2023-03-26T09:07:38.571Z,987.6
2023-03-26T09:08:54.794Z,987.6
2023-03-26T09:09:55.926Z,987.6
2023-03-26T09:10:57.425Z,987.6
2023-03-26T09:11:58.658Z,987.6
2023-03-26T09:12:59.827Z,987.6
2023-03-26T09:14:00.840Z,987.5
2023-03-26T09:15:01.816Z,987.5
2023-03-26T09:16:02.982Z,987.5
2023-03-26T09:17:04.134Z,987.5
2023-03-26T09:18:05.362Z,987.5
2023-03-26T09:19:06.519Z,987.5
2023-03-26T09:20:07.688Z,987.5
2023-03-26T09:21:08.852Z,987.5
2023-03-26T09:22:10.030Z,987.4
2023-03-26T09:23:10.997Z,987.4
2023-03-26T09:24:12.401Z,987.4
2023-03-26T09:25:13.585Z,987.4
2023-03-26T09:26:14.535Z,987.4
2023-03-26T09:27:15.540Z,987.4
2023-03-26T09:28:16.707Z,987.4
2023-03-26T09:29:17.871Z,987.4
2023-03-26T09:30:18.885Z,987.4
2023-03-26T09:31:20.052Z,987.4
2023-03-26T09:32:21.286Z,987.4
2023-03-26T09:33:22.273Z,987.4
2023-03-26T09:34:23.252Z,987.4
2023-03-26T09:35:24.246Z,987.4
2023-03-26T09:36:25.076Z,987.4
2023-03-26T09:37:26.038Z,987.4
2023-03-26T09:38:27.208Z,987.4
2023-03-26T09:39:28.366Z,987.3
2023-03-26T09:40:29.535Z,987.3
2023-03-26T09:41:30.698Z,987.3
2023-03-26T09:42:31.864Z,987.3
2023-03-26T09:43:33.028Z,987.3
2023-03-26T09:44:34.001Z,987.3
2023-03-26T09:45:35.187Z,987.3
2023-03-26T09:46:36.108Z,987.3
2023-03-26T09:47:37.348Z,987.3
2023-03-26T09:48:38.362Z,987.3
2023-03-26T09:49:39.340Z,987.3
2023-03-26T09:50:40.300Z,987.3
2023-03-26T09:51:41.470Z,987.3
2023-03-26T09:52:42.632Z,987.3
2023-03-26T09:53:43.605Z,987.3
2023-03-26T09:54:44.833Z,987.3
2023-03-26T09:55:46.073Z,987.3
2023-03-26T09:56:46.924Z,987.2
2023-03-26T09:57:47.903Z,987.2
2023-03-26T09:58:48.902Z,987.2
2023-03-26T09:59:50.064Z,987.2
2023-03-26T10:00:51.132Z,987.2
2023-03-26T10:01:52.292Z,987.1
2023-03-26T10:02:53.495Z,987.1
2023-03-26T10:03:54.757Z,987.1
2023-03-26T10:04:55.813Z,987.1
2023-03-26T10:05:57.027Z,987.1
2023-03-26T10:06:58.198Z,987.1
2023-03-26T10:07:59.366Z,987.1
2023-03-26T10:09:00.522Z,987.1
2023-03-26T10:10:01.335Z,987.1
2023-03-26T10:11:02.369Z,987.1
2023-03-26T10:12:03.530Z,987.1
2023-03-26T10:13:15.276Z,987.1
2023-03-26T10:14:16.311Z,987.1
2023-03-26T10:15:17.481Z,987.1
2023-03-26T10:16:18.726Z,987.1
2023-03-26T10:17:19.906Z,987
2023-03-26T10:18:30.309Z,987
2023-03-26T10:19:31.124Z,987
2023-03-26T10:20:32.294Z,987
2023-03-26T10:21:33.458Z,987
2023-03-26T10:22:34.624Z,987
2023-03-26T10:23:35.456Z,987
2023-03-26T10:24:36.432Z,987
2023-03-26T10:25:37.598Z,987
2023-03-26T10:26:38.799Z,987
2023-03-26T10:27:39.801Z,987
2023-03-26T10:28:40.843Z,986.9
2023-03-26T10:29:41.989Z,986.9
2023-03-26T10:30:43.048Z,986.9
2023-03-26T10:31:44.003Z,986.9
2023-03-26T10:32:45.057Z,986.9
2023-03-26T10:33:46.208Z,986.8
2023-03-26T10:34:47.212Z,986.8
2023-03-26T10:35:48.379Z,986.8
2023-03-26T10:36:49.554Z,986.9
2023-03-26T10:37:50.717Z,986.9
2023-03-26T10:38:51.890Z,986.9
2023-03-26T10:39:52.856Z,986.9
2023-03-26T10:40:54.609Z,986.9
2023-03-26T10:41:56.156Z,986.9
2023-03-26T10:42:57.322Z,986.8
2023-03-26T10:44:09.150Z,986.8
2023-03-26T10:45:10.385Z,986.8
2023-03-26T10:46:11.480Z,986.8
2023-03-26T10:47:12.782Z,986.8
2023-03-26T10:48:13.936Z,986.8
2023-03-26T10:49:14.965Z,986.7
2023-03-26T10:50:24.009Z,986.7
2023-03-26T10:51:25.206Z,986.7
2023-03-26T10:52:26.367Z,986.7
2023-03-26T10:53:27.480Z,986.7
2023-03-26T10:54:28.434Z,986.7
2023-03-26T10:55:29.726Z,986.7
2023-03-26T10:56:30.910Z,986.7
2023-03-26T10:57:32.170Z,986.7
2023-03-26T10:58:50.571Z,986.7
2023-03-26T10:59:51.845Z,986.7
2023-03-26T11:00:53.350Z,986.7
2023-03-26T11:01:55.159Z,986.7
2023-03-26T11:02:56.526Z,986.7
2023-03-26T11:03:57.749Z,986.7
2023-03-26T11:04:58.753Z,986.7
2023-03-26T11:06:00.103Z,986.7
2023-03-26T11:07:04.901Z,986.7
2023-03-26T11:08:06.050Z,986.7
2023-03-26T11:09:07.209Z,986.7
2023-03-26T11:10:08.595Z,986.7
2023-03-26T11:11:09.650Z,986.7
2023-03-26T11:12:28.298Z,986.6
2023-03-26T11:13:29.502Z,986.6
2023-03-26T11:14:35.643Z,986.6
2023-03-26T11:15:36.798Z,986.6
2023-03-26T11:16:37.854Z,986.6
2023-03-26T11:17:41.665Z,986.6
2023-03-26T11:18:42.779Z,986.6
2023-03-26T11:19:43.801Z,986.6
2023-03-26T11:20:44.989Z,986.6
2023-03-26T11:21:46.202Z,986.6
2023-03-26T11:22:47.366Z,986.6
2023-03-26T11:24:06.186Z,986.6
2023-03-26T11:25:07.215Z,986.6
2023-03-26T11:26:08.387Z,986.6
2023-03-26T11:27:16.981Z,986.6
2023-03-26T11:28:21.575Z,986.6
2023-03-26T11:34:37.075Z,986.6
2023-03-26T11:35:41.646Z,986.5
2023-03-26T11:36:42.844Z,986.5
2023-03-26T11:37:43.793Z,986.5
2023-03-26T11:38:44.969Z,986.5
2023-03-26T11:39:46.126Z,986.5
2023-03-26T11:40:47.112Z,986.5
2023-03-26T11:41:48.126Z,986.5
2023-03-26T11:42:49.288Z,986.4
2023-03-26T11:43:50.457Z,986.4
2023-03-26T11:44:51.624Z,986.4
2023-03-26T11:45:52.792Z,986.4
2023-03-26T11:46:54.081Z,986.4
2023-03-26T11:47:55.216Z,986.4
2023-03-26T11:48:56.439Z,986.4
2023-03-26T11:49:57.605Z,986.4
2023-03-26T11:50:58.573Z,986.4
2023-03-26T11:51:59.767Z,986.4
2023-03-26T11:53:00.908Z,986.4
2023-03-26T11:54:02.069Z,986.4
2023-03-26T11:55:03.263Z,986.4
2023-03-26T11:56:04.287Z,986.4
2023-03-26T11:57:07.794Z,986.4
2023-03-26T11:58:11.176Z,986.4
2023-03-26T11:59:12.311Z,986.4
2023-03-26T12:00:13.475Z,986.4
2023-03-26T12:01:14.640Z,986.4
2023-03-26T12:02:15.878Z,986.3
2023-03-26T12:03:16.712Z,986.3
2023-03-26T12:04:17.964Z,986.3
2023-03-26T12:05:18.981Z,986.3
2023-03-26T12:06:20.170Z,986.3
2023-03-26T12:07:21.160Z,986.3
2023-03-26T12:08:22.303Z,986.3
2023-03-26T12:09:23.472Z,986.3
2023-03-26T12:10:24.637Z,986.3
2023-03-26T12:11:25.799Z,986.3
2023-03-26T12:12:26.969Z,986.2
2023-03-26T12:13:28.141Z,986.2
2023-03-26T12:14:29.154Z,986.2
2023-03-26T12:15:30.320Z,986.2
2023-03-26T12:16:31.513Z,986.2
2023-03-26T12:17:32.776Z,986.2
2023-03-26T12:18:33.758Z,986.2
2023-03-26T12:19:34.910Z,986.2
2023-03-26T12:20:36.096Z,986.2
2023-03-26T12:21:37.250Z,986.2
2023-03-26T12:22:38.440Z,986.2
2023-03-26T12:23:39.386Z,986.2
2023-03-26T12:24:40.552Z,986.2
2023-03-26T12:25:41.717Z,986.2
2023-03-26T12:26:42.887Z,986.2
2023-03-26T12:27:44.052Z,986.2
2023-03-26T12:28:45.221Z,986.2
2023-03-26T12:29:46.186Z,986.2
2023-03-26T12:30:47.350Z,986.2
2023-03-26T12:31:48.563Z,986.2
2023-03-26T12:32:53.774Z,986.2
2023-03-26T12:33:55.291Z,986.2
2023-03-26T12:34:58.915Z,986.2
2023-03-26T12:35:59.954Z,986.2
2023-03-26T12:37:01.581Z,986.2
2023-03-26T12:38:02.474Z,986.2
2023-03-26T12:40:12.138Z,986.2
2023-03-26T12:44:58.655Z,986.1
2023-03-26T12:48:03.652Z,986.2
2023-03-26T12:49:05.751Z,986.2
2023-03-26T12:50:06.784Z,986.1
2023-03-26T12:51:08.078Z,986.2
2023-03-26T12:52:09.884Z,986.2
2023-03-26T12:53:11.068Z,986.2
2023-03-26T12:54:12.204Z,986.2
2023-03-26T12:55:13.377Z,986.3
2023-03-26T12:56:14.548Z,986.3
2023-03-26T12:57:15.379Z,986.3
2023-03-26T12:58:16.530Z,986.3
2023-03-26T12:59:17.491Z,986.3
2023-03-26T13:00:18.658Z,986.3
2023-03-26T13:01:19.817Z,986.3
2023-03-26T13:02:20.856Z,986.3
2023-03-26T13:03:22.318Z,986.3
2023-03-26T13:04:23.543Z,986.3
2023-03-26T13:05:24.724Z,986.3
2023-03-26T13:06:25.891Z,986.4
2023-03-26T13:07:27.059Z,986.4
2023-03-26T13:08:28.075Z,986.4
2023-03-26T13:09:29.005Z,986.4
2023-03-26T13:10:30.008Z,986.3
2023-03-26T13:11:30.838Z,986.3
2023-03-26T13:12:31.809Z,986.2
2023-03-26T13:13:32.973Z,986.2
2023-03-26T13:14:33.996Z,986.1
2023-03-26T13:15:34.964Z,986.1
2023-03-26T13:16:36.141Z,986
2023-03-26T13:17:37.310Z,986
2023-03-26T13:18:39.261Z,986.1
2023-03-26T13:19:40.431Z,986
2023-03-26T13:20:41.596Z,986.1
2023-03-26T13:21:42.568Z,986.1
2023-03-26T13:22:43.731Z,986.1
2023-03-26T13:23:44.932Z,986
2023-03-26T13:24:45.972Z,986
2023-03-26T13:25:47.144Z,986
2023-03-26T13:26:48.313Z,986